sensor_id;sensor_type;location;lat;lon;timestamp;P1;durP1;ratioP1;P2;durP2;ratioP2
77589;SDS011;66746;51.328;12.332;2023-05-07T00:00:41;14.18;;;9.02;;
77589;SDS011;66746;51.328;12.332;2023-05-07T00:03:08;11.32;;;8.27;;
77589;SDS011;66746;51.328;12.332;2023-05-07T00:05:35;11.13;;;7.50;;
77589;SDS011;66746;51.328;12.332;2023-05-07T00:08:01;12.35;;;8.35;;
77589;SDS011;66746;51.328;12.332;2023-05-07T00:10:28;12.20;;;8.23;;
77589;SDS011;66746;51.328;12.332;2023-05-07T00:12:54;13.73;;;10.25;;
77589;SDS011;66746;51.328;12.332;2023-05-07T00:15:21;13.20;;;8.27;;
77589;SDS011;66746;51.328;12.332;2023-05-07T00:17:47;14.88;;;8.73;;
77589;SDS011;66746;51.328;12.332;2023-05-07T00:20:15;12.50;;;8.43;;
77589;SDS011;66746;51.328;12.332;2023-05-07T00:22:42;12.80;;;8.10;;
77589;SDS011;66746;51.328;12.332;2023-05-07T00:25:08;13.40;;;7.75;;
77589;SDS011;66746;51.328;12.332;2023-05-07T00:27:34;11.07;;;7.75;;
77589;SDS011;66746;51.328;12.332;2023-05-07T00:30:01;9.93;;;7.00;;
77589;SDS011;66746;51.328;12.332;2023-05-07T00:32:27;12.63;;;7.45;;
77589;SDS011;66746;51.328;12.332;2023-05-07T00:34:54;10.25;;;6.68;;
77589;SDS011;66746;51.328;12.332;2023-05-07T00:37:21;10.25;;;7.20;;
77589;SDS011;66746;51.328;12.332;2023-05-07T00:39:48;9.48;;;7.18;;
77589;SDS011;66746;51.328;12.332;2023-05-07T00:42:14;10.65;;;6.57;;
77589;SDS011;66746;51.328;12.332;2023-05-07T00:44:41;10.95;;;7.68;;
77589;SDS011;66746;51.328;12.332;2023-05-07T00:47:07;10.18;;;6.70;;
77589;SDS011;66746;51.328;12.332;2023-05-07T00:49:35;11.27;;;7.57;;
77589;SDS011;66746;51.328;12.332;2023-05-07T00:52:05;10.57;;;7.75;;
77589;SDS011;66746;51.328;12.332;2023-05-07T00:54:34;9.75;;;7.10;;
77589;SDS011;66746;51.328;12.332;2023-05-07T00:57:02;10.57;;;7.03;;
77589;SDS011;66746;51.328;12.332;2023-05-07T00:59:28;10.98;;;7.55;;
77589;SDS011;66746;51.328;12.332;2023-05-07T01:01:56;10.60;;;8.48;;
77589;SDS011;66746;51.328;12.332;2023-05-07T01:04:23;10.30;;;7.35;;
77589;SDS011;66746;51.328;12.332;2023-05-07T01:06:50;12.55;;;8.60;;
77589;SDS011;66746;51.328;12.332;2023-05-07T01:09:18;10.65;;;7.45;;
77589;SDS011;66746;51.328;12.332;2023-05-07T01:11:47;11.50;;;8.02;;
77589;SDS011;66746;51.328;12.332;2023-05-07T01:14:15;14.73;;;8.95;;
77589;SDS011;66746;51.328;12.332;2023-05-07T01:16:42;11.63;;;7.82;;
77589;SDS011;66746;51.328;12.332;2023-05-07T01:19:08;14.25;;;9.18;;
77589;SDS011;66746;51.328;12.332;2023-05-07T01:21:37;12.35;;;8.30;;
77589;SDS011;66746;51.328;12.332;2023-05-07T01:24:07;13.60;;;8.88;;
77589;SDS011;66746;51.328;12.332;2023-05-07T01:26:33;13.35;;;8.80;;
77589;SDS011;66746;51.328;12.332;2023-05-07T01:29:00;11.68;;;9.15;;
77589;SDS011;66746;51.328;12.332;2023-05-07T01:31:26;13.40;;;8.75;;
77589;SDS011;66746;51.328;12.332;2023-05-07T01:33:53;12.80;;;9.43;;
77589;SDS011;66746;51.328;12.332;2023-05-07T01:36:21;15.05;;;9.90;;
77589;SDS011;66746;51.328;12.332;2023-05-07T01:38:48;14.30;;;9.50;;
77589;SDS011;66746;51.328;12.332;2023-05-07T01:41:17;14.32;;;9.73;;
77589;SDS011;66746;51.328;12.332;2023-05-07T01:43:44;14.13;;;9.93;;
77589;SDS011;66746;51.328;12.332;2023-05-07T01:46:11;15.13;;;10.32;;
77589;SDS011;66746;51.328;12.332;2023-05-07T01:48:38;14.32;;;9.73;;
77589;SDS011;66746;51.328;12.332;2023-05-07T01:51:05;14.50;;;10.45;;
77589;SDS011;66746;51.328;12.332;2023-05-07T01:53:35;15.13;;;10.15;;
77589;SDS011;66746;51.328;12.332;2023-05-07T01:56:02;15.50;;;10.80;;
77589;SDS011;66746;51.328;12.332;2023-05-07T01:58:30;15.07;;;10.10;;
77589;SDS011;66746;51.328;12.332;2023-05-07T02:00:57;14.05;;;9.68;;
77589;SDS011;66746;51.328;12.332;2023-05-07T02:03:23;16.67;;;10.32;;
77589;SDS011;66746;51.328;12.332;2023-05-07T02:05:57;15.75;;;9.80;;
77589;SDS011;66746;51.328;12.332;2023-05-07T02:08:31;16.60;;;10.95;;
77589;SDS011;66746;51.328;12.332;2023-05-07T02:10:58;18.15;;;11.73;;
77589;SDS011;66746;51.328;12.332;2023-05-07T02:13:25;17.85;;;12.02;;
77589;SDS011;66746;51.328;12.332;2023-05-07T02:15:54;16.27;;;12.55;;
77589;SDS011;66746;51.328;12.332;2023-05-07T02:18:22;18.92;;;11.88;;
77589;SDS011;66746;51.328;12.332;2023-05-07T02:20:49;21.08;;;12.65;;
77589;SDS011;66746;51.328;12.332;2023-05-07T02:23:15;18.33;;;12.77;;
77589;SDS011;66746;51.328;12.332;2023-05-07T02:25:42;17.10;;;11.73;;
77589;SDS011;66746;51.328;12.332;2023-05-07T02:28:09;18.70;;;12.15;;
77589;SDS011;66746;51.328;12.332;2023-05-07T02:30:44;19.38;;;12.18;;
77589;SDS011;66746;51.328;12.332;2023-05-07T02:33:12;18.13;;;12.57;;
77589;SDS011;66746;51.328;12.332;2023-05-07T02:35:40;17.20;;;12.10;;
77589;SDS011;66746;51.328;12.332;2023-05-07T02:38:06;19.95;;;12.63;;
77589;SDS011;66746;51.328;12.332;2023-05-07T02:40:33;19.42;;;12.90;;
77589;SDS011;66746;51.328;12.332;2023-05-07T02:43:00;17.85;;;11.85;;
77589;SDS011;66746;51.328;12.332;2023-05-07T02:45:27;19.90;;;12.05;;
77589;SDS011;66746;51.328;12.332;2023-05-07T02:47:54;18.27;;;11.45;;
77589;SDS011;66746;51.328;12.332;2023-05-07T02:50:21;18.67;;;12.18;;
77589;SDS011;66746;51.328;12.332;2023-05-07T02:52:48;19.38;;;12.25;;
77589;SDS011;66746;51.328;12.332;2023-05-07T02:55:14;18.48;;;12.60;;
77589;SDS011;66746;51.328;12.332;2023-05-07T02:57:41;18.50;;;12.30;;
77589;SDS011;66746;51.328;12.332;2023-05-07T03:00:11;19.67;;;13.88;;
77589;SDS011;66746;51.328;12.332;2023-05-07T03:02:43;19.88;;;12.98;;
77589;SDS011;66746;51.328;12.332;2023-05-07T03:05:09;18.15;;;12.38;;
77589;SDS011;66746;51.328;12.332;2023-05-07T03:07:37;21.33;;;13.27;;
77589;SDS011;66746;51.328;12.332;2023-05-07T03:10:04;17.45;;;12.23;;
77589;SDS011;66746;51.328;12.332;2023-05-07T03:12:31;19.65;;;13.68;;
77589;SDS011;66746;51.328;12.332;2023-05-07T03:14:58;21.70;;;13.00;;
77589;SDS011;66746;51.328;12.332;2023-05-07T03:17:24;18.35;;;12.25;;
77589;SDS011;66746;51.328;12.332;2023-05-07T03:19:50;17.75;;;12.23;;
77589;SDS011;66746;51.328;12.332;2023-05-07T03:22:17;19.67;;;12.60;;
77589;SDS011;66746;51.328;12.332;2023-05-07T03:24:45;17.88;;;11.82;;
77589;SDS011;66746;51.328;12.332;2023-05-07T03:27:11;18.30;;;13.13;;
77589;SDS011;66746;51.328;12.332;2023-05-07T03:29:38;19.00;;;12.55;;
77589;SDS011;66746;51.328;12.332;2023-05-07T03:32:05;18.48;;;12.73;;
77589;SDS011;66746;51.328;12.332;2023-05-07T03:34:31;19.17;;;12.18;;
77589;SDS011;66746;51.328;12.332;2023-05-07T03:36:58;17.70;;;12.30;;
77589;SDS011;66746;51.328;12.332;2023-05-07T03:39:24;16.50;;;11.85;;
77589;SDS011;66746;51.328;12.332;2023-05-07T03:41:52;17.30;;;12.35;;
77589;SDS011;66746;51.328;12.332;2023-05-07T03:44:19;17.83;;;12.27;;
77589;SDS011;66746;51.328;12.332;2023-05-07T03:46:45;17.33;;;12.07;;
77589;SDS011;66746;51.328;12.332;2023-05-07T03:49:12;18.05;;;12.10;;
77589;SDS011;66746;51.328;12.332;2023-05-07T03:51:38;16.17;;;11.20;;
77589;SDS011;66746;51.328;12.332;2023-05-07T03:54:07;18.17;;;12.48;;
77589;SDS011;66746;51.328;12.332;2023-05-07T03:56:33;16.98;;;11.60;;
77589;SDS011;66746;51.328;12.332;2023-05-07T03:59:01;17.00;;;12.02;;
77589;SDS011;66746;51.328;12.332;2023-05-07T04:01:28;15.43;;;11.25;;
77589;SDS011;66746;51.328;12.332;2023-05-07T04:03:55;16.67;;;11.82;;
77589;SDS011;66746;51.328;12.332;2023-05-07T04:06:23;18.58;;;12.60;;
77589;SDS011;66746;51.328;12.332;2023-05-07T04:08:49;17.98;;;12.10;;
77589;SDS011;66746;51.328;12.332;2023-05-07T04:11:16;20.20;;;12.65;;
77589;SDS011;66746;51.328;12.332;2023-05-07T04:13:43;18.02;;;12.10;;
77589;SDS011;66746;51.328;12.332;2023-05-07T04:16:11;19.08;;;12.52;;
77589;SDS011;66746;51.328;12.332;2023-05-07T04:18:38;18.67;;;12.65;;
77589;SDS011;66746;51.328;12.332;2023-05-07T04:21:04;16.67;;;12.77;;
77589;SDS011;66746;51.328;12.332;2023-05-07T04:23:33;17.70;;;12.63;;
77589;SDS011;66746;51.328;12.332;2023-05-07T04:26:02;17.65;;;12.15;;
77589;SDS011;66746;51.328;12.332;2023-05-07T04:28:36;17.63;;;11.35;;
77589;SDS011;66746;51.328;12.332;2023-05-07T04:31:03;17.58;;;11.68;;
77589;SDS011;66746;51.328;12.332;2023-05-07T04:33:32;16.80;;;11.07;;
77589;SDS011;66746;51.328;12.332;2023-05-07T04:36:01;18.80;;;12.40;;
77589;SDS011;66746;51.328;12.332;2023-05-07T04:38:28;20.05;;;12.63;;
77589;SDS011;66746;51.328;12.332;2023-05-07T04:40:55;18.05;;;11.73;;
77589;SDS011;66746;51.328;12.332;2023-05-07T04:43:23;16.33;;;11.65;;
77589;SDS011;66746;51.328;12.332;2023-05-07T04:45:50;18.33;;;12.30;;
77589;SDS011;66746;51.328;12.332;2023-05-07T04:48:17;17.73;;;12.23;;
77589;SDS011;66746;51.328;12.332;2023-05-07T04:50:46;18.88;;;12.40;;
77589;SDS011;66746;51.328;12.332;2023-05-07T04:53:13;17.60;;;12.02;;
77589;SDS011;66746;51.328;12.332;2023-05-07T04:55:40;17.58;;;11.48;;
77589;SDS011;66746;51.328;12.332;2023-05-07T04:58:06;19.25;;;12.18;;
77589;SDS011;66746;51.328;12.332;2023-05-07T05:00:35;16.85;;;12.05;;
77589;SDS011;66746;51.328;12.332;2023-05-07T05:03:04;16.55;;;11.82;;
77589;SDS011;66746;51.328;12.332;2023-05-07T05:05:31;19.23;;;11.48;;
77589;SDS011;66746;51.328;12.332;2023-05-07T05:08:00;17.13;;;12.00;;
77589;SDS011;66746;51.328;12.332;2023-05-07T05:10:27;18.05;;;11.10;;
77589;SDS011;66746;51.328;12.332;2023-05-07T05:12:55;17.30;;;11.55;;
77589;SDS011;66746;51.328;12.332;2023-05-07T05:15:22;16.73;;;11.10;;
77589;SDS011;66746;51.328;12.332;2023-05-07T05:17:52;23.30;;;12.35;;
77589;SDS011;66746;51.328;12.332;2023-05-07T05:20:19;17.05;;;10.85;;
77589;SDS011;66746;51.328;12.332;2023-05-07T05:22:49;15.38;;;11.15;;
77589;SDS011;66746;51.328;12.332;2023-05-07T05:25:17;14.63;;;10.20;;
77589;SDS011;66746;51.328;12.332;2023-05-07T05:27:45;14.35;;;10.38;;
77589;SDS011;66746;51.328;12.332;2023-05-07T05:30:12;14.77;;;10.15;;
77589;SDS011;66746;51.328;12.332;2023-05-07T05:32:40;14.27;;;10.05;;
77589;SDS011;66746;51.328;12.332;2023-05-07T05:35:07;12.50;;;9.15;;
77589;SDS011;66746;51.328;12.332;2023-05-07T05:37:35;12.30;;;9.02;;
77589;SDS011;66746;51.328;12.332;2023-05-07T05:40:03;13.73;;;9.57;;
77589;SDS011;66746;51.328;12.332;2023-05-07T05:42:32;12.02;;;9.00;;
77589;SDS011;66746;51.328;12.332;2023-05-07T05:44:58;13.60;;;9.65;;
77589;SDS011;66746;51.328;12.332;2023-05-07T05:47:26;10.93;;;8.32;;
77589;SDS011;66746;51.328;12.332;2023-05-07T05:49:54;11.65;;;9.02;;
77589;SDS011;66746;51.328;12.332;2023-05-07T05:52:21;14.95;;;8.70;;
77589;SDS011;66746;51.328;12.332;2023-05-07T05:54:47;12.65;;;8.50;;
77589;SDS011;66746;51.328;12.332;2023-05-07T05:57:14;10.70;;;7.97;;
77589;SDS011;66746;51.328;12.332;2023-05-07T05:59:42;12.10;;;9.88;;
77589;SDS011;66746;51.328;12.332;2023-05-07T06:02:08;10.48;;;8.18;;
77589;SDS011;66746;51.328;12.332;2023-05-07T06:04:35;12.55;;;8.45;;
77589;SDS011;66746;51.328;12.332;2023-05-07T06:07:02;14.48;;;7.07;;
77589;SDS011;66746;51.328;12.332;2023-05-07T06:09:29;11.27;;;8.15;;
77589;SDS011;66746;51.328;12.332;2023-05-07T06:11:55;11.57;;;8.57;;
77589;SDS011;66746;51.328;12.332;2023-05-07T06:16:55;11.63;;;8.95;;
77589;SDS011;66746;51.328;12.332;2023-05-07T06:19:21;10.80;;;8.35;;
77589;SDS011;66746;51.328;12.332;2023-05-07T06:21:49;11.13;;;8.80;;
77589;SDS011;66746;51.328;12.332;2023-05-07T06:24:16;11.85;;;8.60;;
77589;SDS011;66746;51.328;12.332;2023-05-07T06:26:42;10.85;;;8.18;;
77589;SDS011;66746;51.328;12.332;2023-05-07T06:29:09;11.75;;;8.23;;
77589;SDS011;66746;51.328;12.332;2023-05-07T06:31:38;13.35;;;10.07;;
77589;SDS011;66746;51.328;12.332;2023-05-07T06:34:08;14.60;;;10.45;;
77589;SDS011;66746;51.328;12.332;2023-05-07T06:36:37;12.80;;;8.32;;
77589;SDS011;66746;51.328;12.332;2023-05-07T06:39:14;12.43;;;8.82;;
77589;SDS011;66746;51.328;12.332;2023-05-07T06:41:43;10.40;;;9.30;;
77589;SDS011;66746;51.328;12.332;2023-05-07T06:44:20;11.50;;;8.50;;
77589;SDS011;66746;51.328;12.332;2023-05-07T06:46:57;12.57;;;9.32;;
77589;SDS011;66746;51.328;12.332;2023-05-07T06:49:25;13.75;;;9.35;;
77589;SDS011;66746;51.328;12.332;2023-05-07T06:51:52;12.18;;;9.25;;
77589;SDS011;66746;51.328;12.332;2023-05-07T06:54:18;12.48;;;8.98;;
77589;SDS011;66746;51.328;12.332;2023-05-07T06:56:48;11.35;;;8.63;;
77589;SDS011;66746;51.328;12.332;2023-05-07T07:01:42;13.20;;;9.13;;
77589;SDS011;66746;51.328;12.332;2023-05-07T07:04:10;13.80;;;9.18;;
77589;SDS011;66746;51.328;12.332;2023-05-07T07:06:40;12.85;;;9.15;;
77589;SDS011;66746;51.328;12.332;2023-05-07T07:09:11;12.90;;;9.45;;
77589;SDS011;66746;51.328;12.332;2023-05-07T07:11:39;11.35;;;8.07;;
77589;SDS011;66746;51.328;12.332;2023-05-07T07:14:06;13.93;;;9.02;;
77589;SDS011;66746;51.328;12.332;2023-05-07T07:16:38;13.70;;;9.90;;
77589;SDS011;66746;51.328;12.332;2023-05-07T07:19:04;11.30;;;8.52;;
77589;SDS011;66746;51.328;12.332;2023-05-07T07:21:31;12.48;;;9.77;;
77589;SDS011;66746;51.328;12.332;2023-05-07T07:23:59;11.27;;;9.07;;
77589;SDS011;66746;51.328;12.332;2023-05-07T07:26:25;11.25;;;8.05;;
77589;SDS011;66746;51.328;12.332;2023-05-07T07:28:52;10.05;;;8.23;;
77589;SDS011;66746;51.328;12.332;2023-05-07T07:31:21;10.07;;;8.18;;
77589;SDS011;66746;51.328;12.332;2023-05-07T07:33:49;11.80;;;8.85;;
77589;SDS011;66746;51.328;12.332;2023-05-07T07:36:18;11.32;;;7.65;;
77589;SDS011;66746;51.328;12.332;2023-05-07T07:38:45;10.25;;;7.88;;
77589;SDS011;66746;51.328;12.332;2023-05-07T07:41:21;10.15;;;8.20;;
77589;SDS011;66746;51.328;12.332;2023-05-07T07:43:48;8.05;;;6.95;;
77589;SDS011;66746;51.328;12.332;2023-05-07T07:46:16;10.02;;;7.22;;
77589;SDS011;66746;51.328;12.332;2023-05-07T07:48:43;7.75;;;6.93;;
77589;SDS011;66746;51.328;12.332;2023-05-07T07:51:10;8.85;;;7.88;;
77589;SDS011;66746;51.328;12.332;2023-05-07T07:53:36;8.63;;;6.93;;
77589;SDS011;66746;51.328;12.332;2023-05-07T07:56:03;8.45;;;6.95;;
77589;SDS011;66746;51.328;12.332;2023-05-07T07:58:34;8.18;;;6.88;;
77589;SDS011;66746;51.328;12.332;2023-05-07T08:01:00;8.77;;;7.28;;
77589;SDS011;66746;51.328;12.332;2023-05-07T08:03:27;8.18;;;7.35;;
77589;SDS011;66746;51.328;12.332;2023-05-07T08:05:57;7.78;;;6.43;;
77589;SDS011;66746;51.328;12.332;2023-05-07T08:08:24;9.88;;;8.68;;
77589;SDS011;66746;51.328;12.332;2023-05-07T08:10:52;8.52;;;7.43;;
77589;SDS011;66746;51.328;12.332;2023-05-07T08:13:26;7.43;;;6.38;;
77589;SDS011;66746;51.328;12.332;2023-05-07T08:15:54;9.23;;;7.75;;
77589;SDS011;66746;51.328;12.332;2023-05-07T08:18:21;9.10;;;8.05;;
77589;SDS011;66746;51.328;12.332;2023-05-07T08:20:47;8.18;;;6.55;;
77589;SDS011;66746;51.328;12.332;2023-05-07T08:23:19;10.50;;;7.68;;
77589;SDS011;66746;51.328;12.332;2023-05-07T08:25:45;7.95;;;7.07;;
77589;SDS011;66746;51.328;12.332;2023-05-07T08:28:12;7.63;;;6.72;;
77589;SDS011;66746;51.328;12.332;2023-05-07T08:30:39;8.70;;;7.88;;
77589;SDS011;66746;51.328;12.332;2023-05-07T08:33:08;8.82;;;7.10;;
77589;SDS011;66746;51.328;12.332;2023-05-07T08:35:35;9.13;;;6.50;;
77589;SDS011;66746;51.328;12.332;2023-05-07T08:38:03;7.15;;;6.20;;
77589;SDS011;66746;51.328;12.332;2023-05-07T08:40:30;6.63;;;5.55;;
77589;SDS011;66746;51.328;12.332;2023-05-07T08:43:02;6.38;;;5.53;;
77589;SDS011;66746;51.328;12.332;2023-05-07T08:45:31;7.45;;;5.45;;
77589;SDS011;66746;51.328;12.332;2023-05-07T08:48:00;7.15;;;5.70;;
77589;SDS011;66746;51.328;12.332;2023-05-07T08:50:36;7.32;;;6.60;;
77589;SDS011;66746;51.328;12.332;2023-05-07T08:53:04;7.32;;;6.63;;
77589;SDS011;66746;51.328;12.332;2023-05-07T08:55:30;7.15;;;6.43;;
77589;SDS011;66746;51.328;12.332;2023-05-07T08:57:57;6.80;;;5.65;;
77589;SDS011;66746;51.328;12.332;2023-05-07T09:00:24;6.70;;;5.95;;
77589;SDS011;66746;51.328;12.332;2023-05-07T09:02:53;6.45;;;5.85;;
77589;SDS011;66746;51.328;12.332;2023-05-07T09:05:20;7.80;;;6.20;;
77589;SDS011;66746;51.328;12.332;2023-05-07T09:07:48;7.60;;;5.88;;
77589;SDS011;66746;51.328;12.332;2023-05-07T09:10:14;6.95;;;6.25;;
77589;SDS011;66746;51.328;12.332;2023-05-07T09:12:42;8.07;;;6.90;;
77589;SDS011;66746;51.328;12.332;2023-05-07T09:15:11;8.98;;;7.28;;
77589;SDS011;66746;51.328;12.332;2023-05-07T09:17:38;7.35;;;5.72;;
77589;SDS011;66746;51.328;12.332;2023-05-07T09:20:10;6.30;;;5.60;;
77589;SDS011;66746;51.328;12.332;2023-05-07T09:22:38;6.97;;;6.28;;
77589;SDS011;66746;51.328;12.332;2023-05-07T09:27:38;7.22;;;6.53;;
77589;SDS011;66746;51.328;12.332;2023-05-07T09:30:22;9.10;;;5.95;;
77589;SDS011;66746;51.328;12.332;2023-05-07T09:32:49;9.10;;;6.35;;
77589;SDS011;66746;51.328;12.332;2023-05-07T09:35:19;7.07;;;6.28;;
77589;SDS011;66746;51.328;12.332;2023-05-07T09:37:53;7.30;;;5.60;;
77589;SDS011;66746;51.328;12.332;2023-05-07T09:40:32;8.40;;;6.25;;
77589;SDS011;66746;51.328;12.332;2023-05-07T09:43:10;6.78;;;6.13;;
77589;SDS011;66746;51.328;12.332;2023-05-07T09:45:45;7.88;;;5.97;;
77589;SDS011;66746;51.328;12.332;2023-05-07T09:48:13;8.88;;;6.57;;
77589;SDS011;66746;51.328;12.332;2023-05-07T09:50:47;6.50;;;5.82;;
77589;SDS011;66746;51.328;12.332;2023-05-07T09:53:23;6.22;;;5.57;;
77589;SDS011;66746;51.328;12.332;2023-05-07T09:55:53;7.18;;;6.47;;
77589;SDS011;66746;51.328;12.332;2023-05-07T09:58:22;7.25;;;5.82;;
77589;SDS011;66746;51.328;12.332;2023-05-07T10:00:50;7.30;;;6.07;;
77589;SDS011;66746;51.328;12.332;2023-05-07T10:03:18;7.53;;;6.82;;
77589;SDS011;66746;51.328;12.332;2023-05-07T10:05:54;7.00;;;5.78;;
77589;SDS011;66746;51.328;12.332;2023-05-07T10:08:21;7.35;;;6.65;;
77589;SDS011;66746;51.328;12.332;2023-05-07T10:10:53;7.18;;;6.03;;
77589;SDS011;66746;51.328;12.332;2023-05-07T10:13:23;9.45;;;7.00;;
77589;SDS011;66746;51.328;12.332;2023-05-07T10:15:54;6.82;;;6.00;;
77589;SDS011;66746;51.328;12.332;2023-05-07T10:18:23;7.82;;;6.10;;
77589;SDS011;66746;51.328;12.332;2023-05-07T10:20:51;6.80;;;6.20;;
77589;SDS011;66746;51.328;12.332;2023-05-07T10:23:22;6.53;;;5.78;;
77589;SDS011;66746;51.328;12.332;2023-05-07T10:25:56;7.45;;;5.75;;
77589;SDS011;66746;51.328;12.332;2023-05-07T10:28:27;6.18;;;5.57;;
77589;SDS011;66746;51.328;12.332;2023-05-07T10:30:59;7.22;;;6.05;;
77589;SDS011;66746;51.328;12.332;2023-05-07T10:33:39;6.00;;;5.40;;
77589;SDS011;66746;51.328;12.332;2023-05-07T10:36:08;5.68;;;5.07;;
77589;SDS011;66746;51.328;12.332;2023-05-07T10:38:35;6.60;;;5.90;;
77589;SDS011;66746;51.328;12.332;2023-05-07T10:41:03;5.85;;;4.90;;
77589;SDS011;66746;51.328;12.332;2023-05-07T10:43:38;6.55;;;5.85;;
77589;SDS011;66746;51.328;12.332;2023-05-07T10:46:09;5.72;;;5.13;;
77589;SDS011;66746;51.328;12.332;2023-05-07T10:51:40;6.03;;;5.43;;
77589;SDS011;66746;51.328;12.332;2023-05-07T10:54:20;6.03;;;4.55;;
77589;SDS011;66746;51.328;12.332;2023-05-07T11:00:42;5.40;;;4.88;;
77589;SDS011;66746;51.328;12.332;2023-05-07T11:03:15;6.22;;;4.55;;
77589;SDS011;66746;51.328;12.332;2023-05-07T11:05:47;5.32;;;4.22;;
77589;SDS011;66746;51.328;12.332;2023-05-07T11:08:54;7.03;;;5.60;;
77589;SDS011;66746;51.328;12.332;2023-05-07T11:17:04;7.20;;;6.45;;
77589;SDS011;66746;51.328;12.332;2023-05-07T11:19:50;7.95;;;6.78;;
77589;SDS011;66746;51.328;12.332;2023-05-07T11:22:36;8.10;;;6.10;;
77589;SDS011;66746;51.328;12.332;2023-05-07T11:25:17;6.82;;;5.75;;
77589;SDS011;66746;51.328;12.332;2023-05-07T11:27:46;5.85;;;5.18;;
77589;SDS011;66746;51.328;12.332;2023-05-07T11:30:16;7.32;;;5.68;;
77589;SDS011;66746;51.328;12.332;2023-05-07T11:32:46;6.22;;;5.43;;
77589;SDS011;66746;51.328;12.332;2023-05-07T11:35:15;5.57;;;4.97;;
77589;SDS011;66746;51.328;12.332;2023-05-07T11:37:44;6.88;;;5.35;;
77589;SDS011;66746;51.328;12.332;2023-05-07T11:40:13;6.43;;;4.95;;
77589;SDS011;66746;51.328;12.332;2023-05-07T11:42:40;6.35;;;5.07;;
77589;SDS011;66746;51.328;12.332;2023-05-07T11:45:07;6.45;;;5.75;;
77589;SDS011;66746;51.328;12.332;2023-05-07T11:47:35;6.32;;;5.72;;
77589;SDS011;66746;51.328;12.332;2023-05-07T11:50:04;5.28;;;4.78;;
77589;SDS011;66746;51.328;12.332;2023-05-07T11:52:32;6.30;;;5.43;;
77589;SDS011;66746;51.328;12.332;2023-05-07T11:54:59;6.20;;;5.57;;
77589;SDS011;66746;51.328;12.332;2023-05-07T11:57:27;7.47;;;5.22;;
77589;SDS011;66746;51.328;12.332;2023-05-07T11:59:53;6.95;;;5.90;;
77589;SDS011;66746;51.328;12.332;2023-05-07T12:02:20;7.35;;;6.55;;
77589;SDS011;66746;51.328;12.332;2023-05-07T12:04:47;8.18;;;5.40;;
77589;SDS011;66746;51.328;12.332;2023-05-07T12:07:15;7.05;;;6.35;;
77589;SDS011;66746;51.328;12.332;2023-05-07T12:09:41;7.45;;;6.43;;
77589;SDS011;66746;51.328;12.332;2023-05-07T12:12:08;8.68;;;6.30;;
77589;SDS011;66746;51.328;12.332;2023-05-07T12:14:37;7.13;;;5.97;;
77589;SDS011;66746;51.328;12.332;2023-05-07T12:17:04;7.20;;;5.88;;
77589;SDS011;66746;51.328;12.332;2023-05-07T12:19:31;7.15;;;5.88;;
77589;SDS011;66746;51.328;12.332;2023-05-07T12:22:01;8.23;;;6.47;;
77589;SDS011;66746;51.328;12.332;2023-05-07T12:24:30;7.43;;;5.88;;
77589;SDS011;66746;51.328;12.332;2023-05-07T12:27:09;7.10;;;5.85;;
77589;SDS011;66746;51.328;12.332;2023-05-07T12:29:35;6.40;;;5.63;;
77589;SDS011;66746;51.328;12.332;2023-05-07T12:32:02;6.88;;;6.18;;
77589;SDS011;66746;51.328;12.332;2023-05-07T12:37:01;8.63;;;6.30;;
77589;SDS011;66746;51.328;12.332;2023-05-07T12:39:29;6.38;;;5.75;;
77589;SDS011;66746;51.328;12.332;2023-05-07T12:41:57;6.10;;;5.25;;
77589;SDS011;66746;51.328;12.332;2023-05-07T12:44:24;6.00;;;4.53;;
77589;SDS011;66746;51.328;12.332;2023-05-07T12:46:54;7.38;;;5.95;;
77589;SDS011;66746;51.328;12.332;2023-05-07T12:49:22;5.95;;;5.35;;
77589;SDS011;66746;51.328;12.332;2023-05-07T12:51:50;6.57;;;5.72;;
77589;SDS011;66746;51.328;12.332;2023-05-07T12:54:27;8.25;;;7.32;;
77589;SDS011;66746;51.328;12.332;2023-05-07T12:57:01;6.88;;;6.15;;
77589;SDS011;66746;51.328;12.332;2023-05-07T12:59:31;6.65;;;5.97;;
77589;SDS011;66746;51.328;12.332;2023-05-07T13:01:58;5.93;;;5.32;;
77589;SDS011;66746;51.328;12.332;2023-05-07T13:04:25;6.13;;;4.97;;
77589;SDS011;66746;51.328;12.332;2023-05-07T13:06:51;6.78;;;5.13;;
77589;SDS011;66746;51.328;12.332;2023-05-07T13:09:18;6.50;;;5.40;;
77589;SDS011;66746;51.328;12.332;2023-05-07T13:11:44;6.07;;;5.47;;
77589;SDS011;66746;51.328;12.332;2023-05-07T13:14:12;5.75;;;5.10;;
77589;SDS011;66746;51.328;12.332;2023-05-07T13:16:39;5.40;;;4.70;;
77589;SDS011;66746;51.328;12.332;2023-05-07T13:19:05;6.80;;;5.72;;
77589;SDS011;66746;51.328;12.332;2023-05-07T13:21:32;8.45;;;5.57;;
77589;SDS011;66746;51.328;12.332;2023-05-07T13:23:58;5.65;;;5.07;;
77589;SDS011;66746;51.328;12.332;2023-05-07T13:26:25;8.57;;;5.65;;
77589;SDS011;66746;51.328;12.332;2023-05-07T13:28:52;5.20;;;4.72;;
77589;SDS011;66746;51.328;12.332;2023-05-07T13:31:20;5.82;;;5.25;;
77589;SDS011;66746;51.328;12.332;2023-05-07T13:33:47;6.07;;;5.25;;
77589;SDS011;66746;51.328;12.332;2023-05-07T13:36:14;5.70;;;5.10;;
77589;SDS011;66746;51.328;12.332;2023-05-07T13:38:40;4.90;;;4.28;;
77589;SDS011;66746;51.328;12.332;2023-05-07T13:41:07;5.43;;;4.60;;
77589;SDS011;66746;51.328;12.332;2023-05-07T13:43:33;6.97;;;4.32;;
77589;SDS011;66746;51.328;12.332;2023-05-07T13:46:00;6.30;;;4.68;;
77589;SDS011;66746;51.328;12.332;2023-05-07T13:48:28;6.70;;;4.53;;
77589;SDS011;66746;51.328;12.332;2023-05-07T13:50:55;7.20;;;6.50;;
77589;SDS011;66746;51.328;12.332;2023-05-07T13:53:21;5.20;;;4.40;;
77589;SDS011;66746;51.328;12.332;2023-05-07T13:55:47;5.50;;;5.03;;
77589;SDS011;66746;51.328;12.332;2023-05-07T13:58:14;4.97;;;4.15;;
77589;SDS011;66746;51.328;12.332;2023-05-07T14:00:40;5.00;;;4.50;;
77589;SDS011;66746;51.328;12.332;2023-05-07T14:03:07;6.60;;;5.03;;
77589;SDS011;66746;51.328;12.332;2023-05-07T14:05:35;5.75;;;4.60;;
77589;SDS011;66746;51.328;12.332;2023-05-07T14:08:01;4.55;;;4.13;;
77589;SDS011;66746;51.328;12.332;2023-05-07T14:10:28;5.15;;;4.65;;
77589;SDS011;66746;51.328;12.332;2023-05-07T14:12:54;5.03;;;3.90;;
77589;SDS011;66746;51.328;12.332;2023-05-07T14:15:21;4.40;;;4.00;;
77589;SDS011;66746;51.328;12.332;2023-05-07T14:17:47;4.97;;;4.43;;
77589;SDS011;66746;51.328;12.332;2023-05-07T14:20:14;4.20;;;3.80;;
77589;SDS011;66746;51.328;12.332;2023-05-07T14:22:42;4.47;;;4.07;;
77589;SDS011;66746;51.328;12.332;2023-05-07T14:25:08;6.45;;;4.00;;
77589;SDS011;66746;51.328;12.332;2023-05-07T14:27:35;4.85;;;4.35;;
77589;SDS011;66746;51.328;12.332;2023-05-07T14:30:01;4.78;;;4.03;;
77589;SDS011;66746;51.328;12.332;2023-05-07T14:32:28;3.75;;;3.45;;
77589;SDS011;66746;51.328;12.332;2023-05-07T14:34:54;3.97;;;3.58;;
77589;SDS011;66746;51.328;12.332;2023-05-07T14:37:21;4.10;;;3.78;;
77589;SDS011;66746;51.328;12.332;2023-05-07T14:39:49;4.95;;;3.38;;
77589;SDS011;66746;51.328;12.332;2023-05-07T14:42:16;3.47;;;3.17;;
77589;SDS011;66746;51.328;12.332;2023-05-07T14:44:43;4.30;;;3.38;;
77589;SDS011;66746;51.328;12.332;2023-05-07T14:47:09;3.83;;;3.30;;
77589;SDS011;66746;51.328;12.332;2023-05-07T14:49:36;4.53;;;3.05;;
77589;SDS011;66746;51.328;12.332;2023-05-07T14:52:02;3.05;;;2.75;;